createdAt,value
2019-02-06T00:00:00.540Z,2.68
2019-02-06T00:01:00.451Z,2.69
2019-02-06T00:02:00.377Z,2.58
2019-02-06T00:03:00.287Z,2.61
2019-02-06T00:04:00.187Z,2.62
2019-02-06T00:05:00.340Z,2.66
2019-02-06T00:06:00.008Z,2.68
2019-02-06T00:06:59.923Z,2.56
2019-02-06T00:07:59.853Z,2.55
2019-02-06T00:08:59.746Z,2.53
2019-02-06T00:09:59.662Z,2.51
2019-02-06T00:10:59.610Z,2.69
2019-02-06T00:11:59.488Z,2.53
2019-02-06T00:12:59.457Z,2.53
2019-02-06T00:13:59.313Z,2.51
2019-02-06T00:14:59.223Z,2.50
2019-02-06T00:15:59.130Z,2.56
2019-02-06T00:16:59.066Z,2.48
2019-02-06T00:17:58.995Z,2.53
2019-02-06T00:18:58.878Z,2.50
2019-02-06T00:19:58.783Z,2.51
2019-02-06T00:20:58.691Z,2.55
2019-02-06T00:21:58.603Z,2.43
2019-02-06T00:22:58.534Z,2.47
2019-02-06T00:23:58.432Z,2.47
2019-02-06T00:24:58.345Z,2.55
2019-02-06T00:25:58.251Z,2.58
2019-02-06T00:26:58.162Z,2.59
2019-02-06T00:27:58.098Z,2.53
2019-02-06T00:28:57.987Z,2.44
2019-02-06T00:29:57.898Z,2.56
2019-02-06T00:30:57.814Z,2.53
2019-02-06T00:31:57.722Z,2.50
2019-02-06T00:32:57.645Z,2.50
2019-02-06T00:33:57.549Z,2.53
2019-02-06T00:34:57.464Z,2.69
2019-02-06T00:35:57.378Z,2.59
2019-02-06T00:36:57.286Z,2.73
2019-02-06T00:37:57.212Z,2.63
2019-02-06T00:38:57.105Z,2.66
2019-02-06T00:39:57.025Z,2.71
2019-02-06T00:40:56.930Z,2.73
2019-02-06T00:41:56.847Z,2.74
2019-02-06T00:42:56.774Z,2.69
2019-02-06T00:43:56.672Z,2.65
2019-02-06T00:44:56.577Z,2.59
2019-02-06T00:45:56.495Z,2.66
2019-02-06T00:46:56.399Z,2.65
2019-02-06T00:47:56.325Z,2.66
2019-02-06T00:48:56.233Z,2.68
2019-02-06T00:49:56.140Z,2.71
2019-02-06T00:50:56.051Z,2.77
2019-02-06T00:51:55.969Z,2.74
2019-02-06T00:52:55.884Z,2.74
2019-02-06T00:53:55.783Z,2.71
2019-02-06T00:54:56.699Z,2.71
2019-02-06T00:55:55.607Z,2.65
2019-02-06T00:56:55.523Z,2.73
2019-02-06T00:57:55.461Z,2.74
2019-02-06T00:58:55.348Z,2.77
2019-02-06T00:59:58.296Z,2.65
2019-02-06T01:00:55.176Z,2.71
2019-02-06T01:01:55.080Z,2.80
2019-02-06T01:02:55.006Z,2.71
2019-02-06T01:03:54.908Z,2.69
2019-02-06T01:04:54.813Z,2.69
2019-02-06T01:05:54.728Z,2.66
2019-02-06T01:06:54.644Z,2.63
2019-02-06T01:07:54.574Z,2.74
2019-02-06T01:08:54.463Z,2.69
2019-02-06T01:09:54.378Z,2.73
2019-02-06T01:10:54.291Z,2.65
2019-02-06T01:11:54.197Z,2.74
2019-02-06T01:12:54.129Z,2.73
2019-02-06T01:13:54.021Z,2.80
2019-02-06T01:14:53.937Z,2.76
2019-02-06T01:15:53.865Z,2.74
2019-02-06T01:16:53.754Z,2.79
2019-02-06T01:17:53.703Z,2.81
2019-02-06T01:18:53.585Z,2.81
2019-02-06T01:19:53.492Z,2.86
2019-02-06T01:20:53.415Z,2.86
2019-02-06T01:21:53.322Z,2.83
2019-02-06T01:22:53.228Z,2.84
2019-02-06T01:23:53.160Z,2.84
2019-02-06T01:24:53.056Z,2.83
2019-02-06T01:25:52.971Z,2.84
2019-02-06T01:26:52.875Z,2.86
2019-02-06T01:27:52.797Z,2.89
2019-02-06T01:28:52.751Z,2.90
2019-02-06T01:29:52.619Z,2.92
2019-02-06T01:30:52.525Z,2.92
2019-02-06T01:31:52.440Z,2.90
2019-02-06T01:32:52.345Z,2.89
2019-02-06T01:33:52.276Z,2.98
2019-02-06T01:34:52.181Z,2.92
2019-02-06T01:35:52.083Z,2.97
2019-02-06T01:36:51.994Z,2.86
2019-02-06T01:37:51.911Z,2.94
2019-02-06T01:38:51.828Z,2.77
2019-02-06T01:39:51.735Z,2.92
2019-02-06T01:40:51.640Z,2.81
2019-02-06T01:41:51.558Z,2.84
2019-02-06T01:42:51.467Z,2.84
2019-02-06T01:43:51.393Z,2.97
2019-02-06T01:44:51.288Z,2.94
2019-02-06T01:45:51.207Z,2.92
2019-02-06T01:46:51.111Z,2.89
2019-02-06T01:47:51.026Z,2.90
2019-02-06T01:48:50.951Z,2.89
2019-02-06T01:49:50.855Z,2.87
2019-02-06T01:50:50.759Z,2.92
2019-02-06T01:51:50.676Z,2.92
2019-02-06T01:52:50.582Z,2.97
2019-02-06T01:53:50.517Z,3.05
2019-02-06T01:54:50.405Z,3.04
2019-02-06T01:55:50.325Z,3.10
2019-02-06T01:56:50.230Z,3.07
2019-02-06T01:57:50.178Z,3.05
2019-02-06T01:58:50.073Z,3.04
2019-02-06T01:59:49.964Z,3.10
2019-02-06T02:00:49.876Z,3.01
2019-02-06T02:01:49.797Z,2.97
2019-02-06T02:02:49.700Z,2.92
2019-02-06T02:03:49.627Z,2.98
2019-02-06T02:04:49.529Z,2.90
2019-02-06T02:06:01.397Z,2.87
2019-02-06T02:06:49.352Z,2.84
2019-02-06T02:07:49.258Z,2.81
2019-02-06T02:08:49.185Z,2.80
2019-02-06T02:09:49.088Z,2.74
2019-02-06T02:10:48.995Z,2.66
2019-02-06T02:11:48.924Z,2.66
2019-02-06T02:12:48.829Z,2.73
2019-02-06T02:13:48.741Z,2.80
2019-02-06T02:14:48.646Z,2.65
2019-02-06T02:15:48.562Z,2.79
2019-02-06T02:16:48.468Z,2.73
2019-02-06T02:17:48.377Z,2.76
2019-02-06T02:18:48.308Z,2.76
2019-02-06T02:19:48.200Z,2.83
2019-02-06T02:20:48.111Z,2.79
2019-02-06T02:21:48.032Z,2.77
2019-02-06T02:22:47.937Z,2.87
2019-02-06T02:23:47.864Z,2.83
2019-02-06T02:24:47.761Z,2.81
2019-02-06T02:25:47.668Z,2.80
2019-02-06T02:26:47.586Z,2.84
2019-02-06T02:27:47.503Z,2.89
2019-02-06T02:28:47.444Z,2.83
2019-02-06T02:29:47.324Z,2.80
2019-02-06T02:30:47.228Z,2.83
2019-02-06T02:31:47.141Z,2.90
2019-02-06T02:32:47.060Z,2.84
2019-02-06T02:33:46.997Z,2.95
2019-02-06T02:34:46.881Z,2.84
2019-02-06T02:35:46.799Z,2.87
2019-02-06T02:36:46.700Z,2.90
2019-02-06T02:37:46.614Z,2.99
2019-02-06T02:38:46.527Z,3.05
2019-02-06T02:39:46.457Z,3.10
2019-02-06T02:40:46.356Z,3.05
2019-02-06T02:41:46.294Z,3.13
2019-02-06T02:42:46.172Z,3.10
2019-02-06T02:43:46.088Z,3.08
2019-02-06T02:44:46.010Z,3.16
2019-02-06T02:45:45.914Z,3.13
2019-02-06T02:46:45.821Z,3.22
2019-02-06T02:47:45.744Z,3.26
2019-02-06T02:48:45.649Z,3.26
2019-02-06T02:49:45.568Z,3.30
2019-02-06T02:50:45.472Z,3.31
2019-02-06T02:51:45.380Z,3.33
2019-02-06T02:52:45.300Z,3.26
2019-02-06T02:53:45.211Z,3.31
2019-02-06T02:54:45.133Z,3.31
2019-02-06T02:55:45.034Z,3.23
2019-02-06T02:56:44.946Z,3.28
2019-02-06T02:57:44.856Z,3.23
2019-02-06T02:58:44.761Z,3.34
2019-02-06T02:59:44.693Z,3.35
2019-02-06T03:00:44.586Z,3.33
2019-02-06T03:01:44.507Z,3.34
2019-02-06T03:02:44.410Z,3.42
2019-02-06T03:03:44.322Z,3.31
2019-02-06T03:04:44.253Z,3.37
2019-02-06T03:05:44.145Z,3.37
2019-02-06T03:06:44.061Z,3.23
2019-02-06T03:07:43.980Z,3.19
2019-02-06T03:08:43.884Z,3.26
2019-02-06T03:09:43.807Z,3.23
2019-02-06T03:10:43.709Z,3.23
2019-02-06T03:11:43.619Z,3.33
2019-02-06T03:12:43.533Z,3.37
2019-02-06T03:13:43.443Z,3.26
2019-02-06T03:14:43.380Z,3.28
2019-02-06T03:15:43.268Z,3.30
2019-02-06T03:16:43.185Z,3.33
2019-02-06T03:17:43.089Z,3.28
2019-02-06T03:18:43.000Z,3.44
2019-02-06T03:19:42.931Z,3.35
2019-02-06T03:20:42.825Z,3.31
2019-02-06T03:21:42.736Z,3.35
2019-02-06T03:22:42.654Z,3.42
2019-02-06T03:23:42.560Z,3.31
2019-02-06T03:24:42.484Z,3.35
2019-02-06T03:25:42.393Z,3.39
2019-02-06T03:26:42.311Z,3.53
2019-02-06T03:27:42.216Z,3.52
2019-02-06T03:28:42.129Z,3.52
2019-02-06T03:29:42.045Z,3.50
2019-02-06T03:30:41.953Z,3.52
2019-02-06T03:31:41.855Z,3.46
2019-02-06T03:32:41.798Z,3.56
2019-02-06T03:33:41.695Z,3.52
2019-02-06T03:34:41.623Z,3.54
2019-02-06T03:35:41.512Z,3.52
2019-02-06T03:36:41.418Z,3.37
2019-02-06T03:37:41.334Z,3.42
2019-02-06T03:38:41.249Z,3.45
2019-02-06T03:39:41.159Z,3.41
2019-02-06T03:40:41.085Z,3.49
2019-02-06T03:41:40.988Z,3.41
2019-02-06T03:42:40.891Z,3.42
2019-02-06T03:43:40.805Z,3.37
2019-02-06T03:44:40.713Z,3.39
2019-02-06T03:45:40.646Z,3.42
2019-02-06T03:46:40.539Z,3.44
2019-02-06T03:47:40.455Z,3.52
2019-02-06T03:48:40.361Z,3.46
2019-02-06T03:49:42.696Z,3.46
2019-02-06T03:50:40.217Z,3.41
2019-02-06T03:51:40.100Z,3.31
2019-02-06T03:52:40.009Z,3.37
2019-02-06T03:53:39.926Z,3.31
2019-02-06T03:54:39.831Z,3.30
2019-02-06T03:55:39.764Z,3.34
2019-02-06T03:56:39.661Z,3.37
2019-02-06T03:57:39.584Z,3.35
2019-02-06T03:58:39.478Z,3.20
2019-02-06T03:59:39.396Z,3.26
2019-02-06T04:00:39.318Z,3.26
2019-02-06T04:01:39.232Z,3.28
2019-02-06T04:02:39.127Z,3.26
2019-02-06T04:03:39.044Z,3.28
2019-02-06T04:04:38.963Z,3.23
2019-02-06T04:05:38.876Z,3.28
2019-02-06T04:06:38.788Z,3.20
2019-02-06T04:07:38.690Z,3.34
2019-02-06T04:08:38.600Z,3.34
2019-02-06T04:09:38.518Z,3.37
2019-02-06T04:10:38.437Z,3.22
2019-02-06T04:11:38.340Z,3.28
2019-02-06T04:12:38.249Z,3.26
2019-02-06T04:13:38.169Z,3.22
2019-02-06T04:14:38.077Z,3.13
2019-02-06T04:15:38.004Z,3.13
2019-02-06T04:16:37.897Z,3.19
2019-02-06T04:17:38.035Z,3.16
2019-02-06T04:18:37.719Z,3.12
2019-02-06T04:19:37.638Z,3.17
2019-02-06T04:20:37.564Z,3.08
2019-02-06T04:21:37.462Z,3.10
2019-02-06T04:22:37.367Z,3.16
2019-02-06T04:23:37.288Z,3.20
2019-02-06T04:24:37.192Z,3.23
2019-02-06T04:25:37.120Z,3.13
2019-02-06T04:26:37.034Z,3.15
2019-02-06T04:27:36.929Z,3.16
2019-02-06T04:28:36.841Z,3.16
2019-02-06T04:29:36.759Z,3.13
2019-02-06T04:30:36.677Z,3.15
2019-02-06T04:31:36.586Z,3.16
2019-02-06T04:32:36.490Z,3.15
2019-02-06T04:33:36.406Z,3.16
2019-02-06T04:34:36.315Z,3.19
2019-02-06T04:35:36.245Z,3.12
2019-02-06T04:36:36.135Z,3.13
2019-02-06T04:37:36.079Z,3.04
2019-02-06T04:38:35.963Z,3.07
2019-02-06T04:39:35.875Z,3.05
2019-02-06T04:40:35.804Z,3.04
2019-02-06T04:41:35.695Z,3.07
2019-02-06T04:42:35.610Z,3.05
2019-02-06T04:43:35.528Z,3.15
2019-02-06T04:44:35.431Z,3.17
2019-02-06T04:45:35.370Z,3.16
2019-02-06T04:46:35.269Z,3.16
2019-02-06T04:47:35.168Z,3.23
2019-02-06T04:48:35.081Z,3.22
2019-02-06T04:49:34.987Z,3.23
2019-02-06T04:50:34.923Z,3.28
2019-02-06T04:51:34.818Z,3.30
2019-02-06T04:52:34.739Z,3.34
2019-02-06T04:53:34.638Z,3.31
2019-02-06T04:54:34.558Z,3.34
2019-02-06T04:55:34.487Z,3.26
2019-02-06T04:56:34.379Z,3.25
2019-02-06T04:57:34.295Z,3.20
2019-02-06T04:58:34.197Z,3.25
2019-02-06T04:59:34.114Z,3.31
2019-02-06T05:00:34.044Z,3.37
2019-02-06T05:01:33.934Z,3.42
2019-02-06T05:02:33.872Z,3.41
2019-02-06T05:03:33.762Z,3.44
2019-02-06T05:04:33.671Z,3.41
2019-02-06T05:05:33.604Z,3.30
2019-02-06T05:06:33.615Z,3.34
2019-02-06T05:07:33.407Z,3.33
2019-02-06T05:08:33.424Z,3.31
2019-02-06T05:09:33.230Z,3.30
2019-02-06T05:10:33.266Z,3.28
2019-02-06T05:11:33.057Z,3.44
2019-02-06T05:12:33.041Z,3.45
2019-02-06T05:13:32.876Z,3.42
2019-02-06T05:14:32.850Z,3.44
2019-02-06T05:15:32.704Z,3.46
2019-02-06T05:16:32.688Z,3.41
2019-02-06T05:17:32.523Z,3.45
2019-02-06T05:18:32.472Z,3.57
2019-02-06T05:19:32.358Z,3.54
2019-02-06T05:20:32.274Z,3.49
2019-02-06T05:21:32.191Z,3.52
2019-02-06T05:22:32.306Z,3.44
2019-02-06T05:23:31.998Z,3.54
2019-02-06T05:24:32.096Z,3.49
2019-02-06T05:25:31.823Z,3.54
2019-02-06T05:26:31.940Z,3.53
2019-02-06T05:27:31.652Z,3.62
2019-02-06T05:28:31.724Z,3.56
2019-02-06T05:29:31.472Z,3.46
2019-02-06T05:30:31.521Z,3.54
2019-02-06T05:31:31.424Z,3.50
2019-02-06T05:32:31.330Z,3.49
2019-02-06T05:33:31.121Z,3.53
2019-02-06T05:34:31.139Z,3.53
2019-02-06T05:35:30.942Z,3.53
2019-02-06T05:36:30.978Z,3.57
2019-02-06T05:37:32.357Z,3.57
2019-02-06T05:38:30.770Z,3.62
2019-02-06T05:39:30.593Z,3.60
2019-02-06T05:40:30.564Z,3.71
2019-02-06T05:41:30.430Z,3.71
2019-02-06T05:42:30.363Z,3.70
2019-02-06T05:43:30.380Z,3.68
2019-02-06T05:44:30.150Z,3.59
2019-02-06T05:45:30.067Z,3.54
2019-02-06T05:46:30.025Z,3.64
2019-02-06T05:47:29.890Z,3.56
2019-02-06T05:48:29.803Z,3.59
2019-02-06T05:49:29.717Z,3.57
2019-02-06T05:50:29.624Z,3.59
2019-02-06T05:51:29.549Z,3.56
2019-02-06T05:52:29.457Z,3.53
2019-02-06T05:53:29.363Z,3.56
2019-02-06T05:54:29.274Z,3.53
2019-02-06T05:55:29.187Z,3.50
2019-02-06T05:56:29.110Z,3.56
2019-02-06T05:57:29.009Z,3.53
2019-02-06T05:58:28.927Z,3.59
2019-02-06T05:59:28.882Z,3.53
2019-02-06T06:00:28.749Z,3.50
2019-02-06T06:01:28.676Z,3.50
2019-02-06T06:02:28.567Z,3.50
2019-02-06T06:03:28.480Z,3.54
2019-02-06T06:04:28.405Z,3.49
2019-02-06T06:05:28.306Z,3.50
2019-02-06T06:06:28.226Z,3.53
2019-02-06T06:07:28.143Z,3.53
2019-02-06T06:08:28.050Z,3.54
2019-02-06T06:09:27.953Z,3.57
2019-02-06T06:10:27.871Z,3.60
2019-02-06T06:11:27.793Z,3.57
2019-02-06T06:12:27.691Z,3.60
2019-02-06T06:13:27.621Z,3.50
2019-02-06T06:14:27.512Z,3.49
2019-02-06T06:15:27.422Z,3.53
2019-02-06T06:16:27.360Z,3.52
2019-02-06T06:17:27.254Z,3.50
2019-02-06T06:18:27.162Z,3.49
2019-02-06T06:19:27.084Z,3.56
2019-02-06T06:20:26.984Z,3.54
2019-02-06T06:21:26.914Z,3.50
2019-02-06T06:22:26.813Z,3.57
2019-02-06T06:23:26.718Z,3.59
2019-02-06T06:24:26.636Z,3.56
2019-02-06T06:25:26.557Z,3.59
2019-02-06T06:26:26.471Z,3.57
2019-02-06T06:27:26.369Z,3.46
2019-02-06T06:28:26.290Z,3.50
2019-02-06T06:29:26.193Z,3.53
2019-02-06T06:30:26.110Z,3.64
2019-02-06T06:31:26.047Z,3.56
2019-02-06T06:32:25.943Z,3.63
2019-02-06T06:33:25.849Z,3.54
2019-02-06T06:34:25.761Z,3.67
2019-02-06T06:35:25.677Z,3.67
2019-02-06T06:36:25.583Z,3.67
2019-02-06T06:37:25.501Z,3.75
2019-02-06T06:38:25.407Z,3.70
2019-02-06T06:39:25.314Z,3.75
2019-02-06T06:40:25.229Z,3.64
2019-02-06T06:41:25.135Z,3.71
2019-02-06T06:42:25.065Z,3.72
2019-02-06T06:43:24.970Z,3.77
2019-02-06T06:44:24.943Z,3.77
2019-02-06T06:45:24.782Z,3.74
2019-02-06T06:46:24.700Z,3.63
2019-02-06T06:47:24.623Z,3.74
2019-02-06T06:48:24.525Z,3.74
2019-02-06T06:49:24.439Z,3.74
2019-02-06T06:50:24.353Z,3.71
2019-02-06T06:51:24.256Z,3.71
2019-02-06T06:52:24.190Z,3.74
2019-02-06T06:53:24.080Z,3.75
2019-02-06T06:54:23.991Z,3.78
2019-02-06T06:55:23.908Z,3.78
2019-02-06T06:56:23.816Z,3.77
2019-02-06T06:57:23.741Z,3.89
2019-02-06T06:58:23.645Z,3.78
2019-02-06T06:59:23.553Z,3.82
2019-02-06T07:00:24.802Z,3.78
2019-02-06T07:01:23.387Z,3.84
2019-02-06T07:02:23.305Z,3.88
2019-02-06T07:03:23.201Z,3.89
2019-02-06T07:04:23.120Z,3.92
2019-02-06T07:05:23.024Z,3.93
2019-02-06T07:06:22.938Z,3.90
2019-02-06T07:07:22.868Z,3.86
2019-02-06T07:08:22.775Z,3.86
2019-02-06T07:09:22.674Z,3.86
2019-02-06T07:10:22.594Z,3.80
2019-02-06T07:11:22.501Z,3.78
2019-02-06T07:12:22.434Z,3.89
2019-02-06T07:13:22.329Z,3.84
2019-02-06T07:14:22.236Z,3.86
2019-02-06T07:15:22.149Z,3.84
2019-02-06T07:16:22.065Z,3.86
2019-02-06T07:17:21.991Z,3.84
2019-02-06T07:18:21.884Z,3.88
2019-02-06T07:19:21.801Z,3.93
2019-02-06T07:20:21.708Z,3.93
2019-02-06T07:21:21.625Z,4.00
2019-02-06T07:22:21.556Z,3.96
2019-02-06T07:23:21.448Z,3.95
2019-02-06T07:24:21.371Z,4.04
2019-02-06T07:25:21.278Z,4.04
2019-02-06T07:26:21.225Z,4.04
2019-02-06T07:27:21.212Z,4.06
2019-02-06T07:28:21.021Z,4.07
2019-02-06T07:29:20.921Z,4.18
2019-02-06T07:30:20.837Z,4.18
2019-02-06T07:31:20.752Z,4.20
2019-02-06T07:32:20.674Z,4.24
2019-02-06T07:33:20.579Z,4.24
2019-02-06T07:34:20.492Z,4.25
2019-02-06T07:35:20.397Z,4.28
2019-02-06T07:36:20.308Z,4.28
2019-02-06T07:37:20.239Z,4.28
2019-02-06T07:38:24.268Z,4.28
2019-02-06T07:39:20.046Z,4.32
2019-02-06T07:40:19.992Z,4.29
2019-02-06T07:41:19.872Z,4.32
2019-02-06T07:42:19.801Z,4.26
2019-02-06T07:43:19.713Z,4.24
2019-02-06T07:44:19.611Z,4.26
2019-02-06T07:45:19.523Z,4.32
2019-02-06T07:46:19.444Z,4.35
2019-02-06T07:47:19.361Z,4.34
2019-02-06T07:48:19.260Z,4.36
2019-02-06T07:49:19.187Z,4.43
2019-02-06T07:50:19.087Z,4.46
2019-02-06T07:51:19.000Z,4.47
2019-02-06T07:52:19.032Z,4.47
2019-02-06T07:53:18.833Z,4.50
2019-02-06T07:54:18.747Z,4.54
2019-02-06T07:55:18.654Z,4.59
2019-02-06T07:56:18.571Z,4.56
2019-02-06T07:57:18.476Z,4.54
2019-02-06T07:58:18.406Z,4.64
2019-02-06T07:59:18.311Z,4.61
2019-02-06T08:00:18.218Z,4.65
2019-02-06T08:01:18.131Z,4.65
2019-02-06T08:02:18.044Z,4.64
2019-02-06T08:03:17.999Z,4.67
2019-02-06T08:04:17.870Z,4.67
2019-02-06T08:05:17.789Z,4.68
2019-02-06T08:06:17.708Z,4.75
2019-02-06T08:07:17.617Z,4.68
2019-02-06T08:08:17.536Z,4.67
2019-02-06T08:09:17.434Z,4.72
2019-02-06T08:10:17.354Z,4.77
2019-02-06T08:11:17.262Z,4.79
2019-02-06T08:12:17.180Z,4.93
2019-02-06T08:13:17.107Z,4.80
2019-02-06T08:14:17.004Z,4.96
2019-02-06T08:15:16.919Z,4.97
2019-02-06T08:16:16.839Z,4.97
2019-02-06T08:17:16.749Z,4.93
2019-02-06T08:18:16.679Z,4.99
2019-02-06T08:19:16.579Z,4.97
2019-02-06T08:20:16.488Z,4.99
2019-02-06T08:21:16.403Z,5.02
2019-02-06T08:22:16.322Z,5.05
2019-02-06T08:23:16.246Z,5.05
2019-02-06T08:24:16.140Z,5.14
2019-02-06T08:25:16.060Z,5.02
2019-02-06T08:26:15.965Z,5.02
2019-02-06T08:27:15.899Z,5.12
2019-02-06T08:28:15.811Z,5.15
2019-02-06T08:29:15.712Z,5.14
2019-02-06T08:30:15.627Z,5.09
2019-02-06T08:31:15.535Z,5.22
2019-02-06T08:32:15.452Z,5.12
2019-02-06T08:33:15.407Z,5.24
2019-02-06T08:34:15.276Z,5.23
2019-02-06T08:35:15.196Z,5.20
2019-02-06T08:36:15.107Z,5.35
2019-02-06T08:37:15.025Z,5.29
2019-02-06T08:38:14.951Z,5.30
2019-02-06T08:39:14.857Z,5.38
2019-02-06T08:40:14.770Z,5.35
2019-02-06T08:41:14.679Z,5.37
2019-02-06T08:42:14.591Z,5.47
2019-02-06T08:43:14.524Z,5.45
2019-02-06T08:44:14.432Z,5.58
2019-02-06T08:45:14.339Z,5.62
2019-02-06T08:46:14.246Z,5.56
2019-02-06T08:47:14.167Z,5.60
2019-02-06T08:48:14.089Z,5.47
2019-02-06T08:49:13.986Z,5.59
2019-02-06T08:50:13.922Z,5.59
2019-02-06T08:51:13.816Z,5.60
2019-02-06T08:52:13.741Z,5.59
2019-02-06T08:53:13.665Z,5.62
2019-02-06T08:54:13.558Z,5.63
2019-02-06T08:55:13.477Z,5.63
2019-02-06T08:56:13.389Z,5.67
2019-02-06T08:57:13.305Z,5.62
2019-02-06T08:58:13.234Z,5.59
2019-02-06T08:59:13.131Z,5.62
2019-02-06T09:00:13.053Z,5.66
2019-02-06T09:01:12.968Z,5.70
2019-02-06T09:02:12.871Z,5.67
2019-02-06T09:03:12.806Z,5.83
2019-02-06T09:04:12.703Z,5.70
2019-02-06T09:05:12.614Z,5.75
2019-02-06T09:06:12.536Z,5.87
2019-02-06T09:07:12.445Z,5.92
2019-02-06T09:08:12.373Z,5.77
2019-02-06T09:09:12.303Z,5.77
2019-02-06T09:10:13.415Z,5.84
2019-02-06T09:11:12.109Z,5.90
2019-02-06T09:12:12.019Z,5.87
2019-02-06T09:13:11.981Z,5.90
2019-02-06T09:14:11.848Z,5.98
2019-02-06T09:15:11.770Z,5.96
2019-02-06T09:16:11.676Z,6.08
2019-02-06T09:17:11.599Z,6.05
2019-02-06T09:18:11.508Z,6.11
2019-02-06T09:19:11.447Z,6.10
2019-02-06T09:20:11.337Z,6.19
2019-02-06T09:21:11.256Z,6.30
2019-02-06T09:22:11.166Z,6.30
2019-02-06T09:23:11.082Z,6.38
2019-02-06T09:24:11.017Z,6.38
2019-02-06T09:25:10.913Z,6.43
2019-02-06T09:26:10.825Z,6.46
2019-02-06T09:27:10.748Z,6.55
2019-02-06T09:28:10.658Z,6.60
2019-02-06T09:29:10.583Z,6.58
2019-02-06T09:30:10.497Z,6.63
2019-02-06T09:31:10.404Z,6.71
2019-02-06T09:32:10.318Z,6.75
2019-02-06T09:33:10.239Z,6.76
2019-02-06T09:34:10.163Z,6.79
2019-02-06T09:35:10.070Z,6.93
2019-02-06T09:36:09.979Z,6.96
2019-02-06T09:37:09.900Z,6.96
2019-02-06T09:38:09.813Z,7.04
2019-02-06T09:39:11.795Z,7.09
2019-02-06T09:40:09.662Z,7.23
2019-02-06T09:41:09.564Z,7.18
2019-02-06T09:42:09.474Z,7.27
2019-02-06T09:43:09.396Z,7.36
2019-02-06T09:44:09.322Z,7.34
2019-02-06T09:45:09.217Z,7.48
2019-02-06T09:46:09.143Z,7.45
2019-02-06T09:47:09.081Z,7.55
2019-02-06T09:48:08.993Z,7.60
2019-02-06T09:49:08.904Z,7.71
2019-02-06T09:50:08.803Z,7.77
2019-02-06T09:51:08.723Z,7.94
2019-02-06T09:52:08.634Z,7.81
2019-02-06T09:53:08.556Z,7.99
2019-02-06T09:54:08.481Z,7.91
2019-02-06T09:55:08.394Z,7.85
2019-02-06T09:56:08.302Z,7.86
2019-02-06T09:57:08.225Z,7.92
2019-02-06T09:58:08.151Z,7.91
2019-02-06T09:59:08.056Z,7.99
2019-02-06T10:00:07.976Z,7.91
2019-02-06T10:01:07.884Z,7.92
2019-02-06T10:02:09.543Z,7.89
2019-02-06T10:03:07.739Z,7.85
2019-02-06T10:04:07.639Z,7.77
2019-02-06T10:05:07.555Z,7.81
2019-02-06T10:06:07.487Z,7.91
2019-02-06T10:07:07.387Z,7.92
2019-02-06T10:08:07.325Z,7.81
2019-02-06T10:09:07.221Z,7.82
2019-02-06T10:10:07.136Z,7.85
2019-02-06T10:11:07.053Z,7.84
2019-02-06T10:12:07.985Z,7.94
2019-02-06T10:13:06.911Z,8.03
2019-02-06T10:14:06.804Z,8.00
2019-02-06T10:15:06.721Z,8.02
2019-02-06T10:16:06.646Z,8.06
2019-02-06T10:17:06.553Z,8.09
2019-02-06T10:18:06.499Z,8.13
2019-02-06T10:19:06.404Z,8.25
2019-02-06T10:20:06.322Z,8.20
2019-02-06T10:21:06.227Z,8.25
2019-02-06T10:22:06.142Z,8.12
2019-02-06T10:23:06.068Z,8.13
2019-02-06T10:24:05.981Z,8.17
2019-02-06T10:25:05.890Z,8.18
2019-02-06T10:26:05.812Z,8.21
2019-02-06T10:27:05.727Z,8.21
2019-02-06T10:28:05.781Z,8.17
2019-02-06T10:29:05.557Z,8.12
2019-02-06T10:30:05.476Z,8.12
2019-02-06T10:31:05.400Z,8.17
2019-02-06T10:32:05.311Z,8.22
2019-02-06T10:33:05.241Z,8.21
2019-02-06T10:34:05.147Z,8.18
2019-02-06T10:35:05.062Z,8.09
2019-02-06T10:36:04.985Z,8.09
2019-02-06T10:37:04.907Z,8.04
2019-02-06T10:38:04.828Z,8.06
2019-02-06T10:39:04.727Z,8.09
2019-02-06T10:40:04.662Z,8.00
2019-02-06T10:41:04.778Z,8.07
2019-02-06T10:42:04.484Z,8.03
2019-02-06T10:43:04.461Z,8.07
2019-02-06T10:44:04.318Z,8.17
2019-02-06T10:45:04.226Z,8.24
2019-02-06T10:46:04.151Z,8.34
2019-02-06T10:47:04.067Z,8.40
2019-02-06T10:48:03.978Z,8.42
2019-02-06T10:49:03.914Z,8.54
2019-02-06T10:50:03.818Z,8.55
2019-02-06T10:51:03.729Z,8.40
2019-02-06T10:52:03.647Z,8.39
2019-02-06T10:53:03.568Z,8.39
2019-02-06T10:54:03.493Z,8.43
2019-02-06T10:55:03.399Z,8.36
2019-02-06T10:56:03.336Z,8.36
2019-02-06T10:57:03.236Z,8.32
2019-02-06T10:58:03.151Z,8.39
2019-02-06T10:59:03.085Z,8.40
2019-02-06T11:00:02.986Z,8.49
2019-02-06T11:01:02.916Z,8.49
2019-02-06T11:02:02.822Z,8.54
2019-02-06T11:03:02.748Z,8.47
2019-02-06T11:04:02.669Z,8.52
2019-02-06T11:05:02.566Z,8.54
2019-02-06T11:06:02.483Z,8.57
2019-02-06T11:07:02.418Z,8.58
2019-02-06T11:08:02.319Z,8.63
2019-02-06T11:09:02.247Z,8.55
2019-02-06T11:10:02.157Z,8.63
2019-02-06T11:11:02.069Z,8.60
2019-02-06T11:12:01.986Z,8.70
2019-02-06T11:13:01.909Z,8.86
2019-02-06T11:14:01.834Z,8.76
2019-02-06T11:15:01.745Z,8.79
2019-02-06T11:16:01.664Z,8.75
2019-02-06T11:17:01.570Z,8.70
2019-02-06T11:18:01.487Z,8.73
2019-02-06T11:19:01.424Z,8.82
2019-02-06T11:20:01.320Z,8.80
2019-02-06T11:21:01.239Z,8.79
2019-02-06T11:22:01.162Z,8.78
2019-02-06T11:23:01.074Z,8.76
2019-02-06T11:24:01.005Z,8.75
2019-02-06T11:25:00.924Z,8.78
2019-02-06T11:26:00.825Z,8.78
2019-02-06T11:27:00.747Z,8.79
2019-02-06T11:28:00.661Z,8.80
2019-02-06T11:29:00.597Z,8.96
2019-02-06T11:30:00.494Z,8.98
2019-02-06T11:31:00.415Z,9.04
2019-02-06T11:32:00.358Z,9.17
2019-02-06T11:33:00.248Z,9.31
2019-02-06T11:34:00.171Z,9.27
2019-02-06T11:35:02.298Z,9.16
2019-02-06T11:35:59.998Z,9.30
2019-02-06T11:36:59.917Z,9.27
2019-02-06T11:37:59.828Z,9.38
2019-02-06T11:38:59.768Z,9.32
2019-02-06T11:39:59.665Z,9.34
2019-02-06T11:40:59.589Z,9.42
2019-02-06T11:41:59.499Z,9.34
2019-02-06T11:42:59.426Z,9.40
2019-02-06T11:43:59.347Z,9.37
2019-02-06T11:44:59.258Z,9.32
2019-02-06T11:45:59.170Z,9.34
2019-02-06T11:46:59.089Z,9.35
2019-02-06T11:47:59.014Z,9.22
2019-02-06T11:48:58.936Z,9.22
2019-02-06T11:49:58.843Z,9.23
2019-02-06T11:50:58.763Z,9.24
2019-02-06T11:51:58.685Z,9.26
2019-02-06T11:52:58.590Z,9.34
2019-02-06T11:53:58.536Z,9.37
2019-02-06T11:54:58.436Z,9.26
2019-02-06T11:55:58.351Z,9.22
2019-02-06T11:56:58.268Z,9.38
2019-02-06T11:57:58.186Z,9.44
2019-02-06T11:58:58.108Z,9.58
2019-02-06T11:59:58.024Z,9.60
2019-02-06T12:00:57.938Z,9.60
2019-02-06T12:01:57.859Z,9.59
2019-02-06T12:02:57.763Z,9.60
2019-02-06T12:03:57.706Z,9.55
2019-02-06T12:04:57.605Z,9.59
2019-02-06T12:05:57.522Z,9.68
2019-02-06T12:06:57.440Z,9.62
2019-02-06T12:07:57.350Z,9.60
2019-02-06T12:08:57.318Z,9.59
2019-02-06T12:10:07.866Z,9.59
2019-02-06T12:10:57.115Z,9.59
2019-02-06T12:11:57.031Z,9.55
2019-02-06T12:12:56.944Z,9.52
2019-02-06T12:13:56.858Z,9.49
2019-02-06T12:14:56.811Z,9.63
2019-02-06T12:15:56.693Z,9.56
2019-02-06T12:16:56.619Z,9.58
2019-02-06T12:17:56.537Z,9.56
2019-02-06T12:18:56.449Z,9.59
2019-02-06T12:19:56.372Z,9.56
2019-02-06T12:20:56.284Z,9.65
2019-02-06T12:21:56.201Z,9.63
2019-02-06T12:22:56.119Z,9.63
2019-02-06T12:23:56.032Z,9.60
2019-02-06T12:24:55.966Z,9.65
2019-02-06T12:25:55.863Z,9.68
2019-02-06T12:26:55.779Z,9.59
2019-02-06T12:27:55.706Z,9.59
2019-02-06T12:28:55.615Z,9.63
2019-02-06T12:29:55.553Z,9.71
2019-02-06T12:30:56.223Z,9.70
2019-02-06T12:31:55.365Z,9.67
2019-02-06T12:32:55.286Z,9.67
2019-02-06T12:33:55.205Z,9.80
2019-02-06T12:34:55.132Z,9.74
2019-02-06T12:35:55.040Z,9.74
2019-02-06T12:36:54.957Z,9.70
2019-02-06T12:37:54.877Z,9.74
2019-02-06T12:38:54.794Z,9.74
2019-02-06T12:39:54.715Z,9.74
2019-02-06T12:40:54.626Z,9.75
2019-02-06T12:41:54.536Z,9.70
2019-02-06T12:42:54.477Z,9.68
2019-02-06T12:43:54.378Z,9.71
2019-02-06T12:44:54.310Z,9.68
2019-02-06T12:45:54.208Z,9.85
2019-02-06T12:46:54.124Z,9.85
2019-02-06T12:47:54.078Z,9.96
2019-02-06T12:48:53.961Z,9.89
2019-02-06T12:49:53.891Z,9.98
2019-02-06T12:50:53.797Z,10.02
2019-02-06T12:51:53.710Z,10.16
2019-02-06T12:52:53.624Z,10.25
2019-02-06T12:53:53.551Z,10.26
2019-02-06T12:54:53.481Z,10.25
2019-02-06T12:55:53.377Z,10.42
2019-02-06T12:56:53.302Z,10.43
2019-02-06T12:57:53.211Z,10.39
2019-02-06T12:58:53.131Z,10.44
2019-02-06T12:59:53.091Z,10.51
2019-02-06T13:00:52.965Z,10.51
2019-02-06T13:01:52.881Z,10.44
2019-02-06T13:02:56.338Z,10.46
2019-02-06T13:03:52.718Z,10.58
2019-02-06T13:04:52.665Z,10.75
2019-02-06T13:05:52.553Z,10.84
2019-02-06T13:06:52.471Z,10.95
2019-02-06T13:07:52.396Z,10.93
2019-02-06T13:08:52.306Z,10.88
2019-02-06T13:09:52.242Z,10.87
2019-02-06T13:10:52.150Z,10.91
2019-02-06T13:11:52.060Z,10.87
2019-02-06T13:12:51.978Z,10.95
2019-02-06T13:13:51.898Z,10.81
2019-02-06T13:14:52.256Z,10.83
2019-02-06T13:15:51.732Z,10.84